createdAt,value
2018-09-06T00:01:15.008Z,49.30
2018-09-06T00:03:43.419Z,49.50
2018-09-06T00:06:11.748Z,49.70
2018-09-06T00:08:39.935Z,49.80
2018-09-06T00:11:08.142Z,49.90
2018-09-06T00:13:36.477Z,49.90
2018-09-06T00:16:04.931Z,49.90
2018-09-06T00:18:33.158Z,50.00
2018-09-06T00:21:01.682Z,49.70
2018-09-06T00:23:29.960Z,49.80
2018-09-06T00:25:58.407Z,49.90
2018-09-06T00:28:26.651Z,50.20
2018-09-06T00:30:54.890Z,49.80
2018-09-06T00:33:23.232Z,50.00
2018-09-06T00:35:51.615Z,49.90
2018-09-06T00:38:20.034Z,49.80
2018-09-06T00:40:48.374Z,50.10
2018-09-06T00:43:16.735Z,50.00
2018-09-06T00:45:44.938Z,50.20
2018-09-06T00:48:13.562Z,50.10
2018-09-06T00:50:42.086Z,49.90
2018-09-06T00:53:10.291Z,49.80
2018-09-06T00:55:38.509Z,50.20
2018-09-06T00:58:06.875Z,50.00
2018-09-06T01:00:35.166Z,49.90
2018-09-06T01:03:03.425Z,49.90
2018-09-06T01:05:31.642Z,49.70
2018-09-06T01:07:59.866Z,49.70
2018-09-06T01:10:28.202Z,49.80
2018-09-06T01:12:56.430Z,50.00
2018-09-06T01:15:24.781Z,50.30
2018-09-06T01:17:52.996Z,50.30
2018-09-06T01:20:21.317Z,50.30
2018-09-06T01:22:49.773Z,50.20
2018-09-06T01:25:17.969Z,50.00
2018-09-06T01:27:46.392Z,49.70
2018-09-06T01:30:14.630Z,49.30
2018-09-06T01:32:42.945Z,49.20
2018-09-06T01:35:11.270Z,49.70
2018-09-06T01:37:39.510Z,49.70
2018-09-06T01:40:07.814Z,49.50
2018-09-06T01:42:36.129Z,50.00
2018-09-06T01:45:04.430Z,51.10
2018-09-06T01:47:32.710Z,50.10
2018-09-06T01:50:00.937Z,50.00
2018-09-06T01:52:29.171Z,49.50
2018-09-06T01:54:57.650Z,50.00
2018-09-06T01:57:25.859Z,49.90
2018-09-06T01:59:54.138Z,49.70
2018-09-06T02:02:22.450Z,49.80
2018-09-06T02:04:50.689Z,49.40
2018-09-06T02:07:18.914Z,49.20
2018-09-06T02:09:47.141Z,49.20
2018-09-06T02:12:15.317Z,49.30
2018-09-06T02:14:44.192Z,49.90
2018-09-06T02:17:12.584Z,49.90
2018-09-06T02:19:40.810Z,49.70
2018-09-06T02:22:09.009Z,50.00
2018-09-06T02:24:37.206Z,50.10
2018-09-06T02:27:05.685Z,50.40
2018-09-06T02:29:33.933Z,50.30
2018-09-06T02:32:02.194Z,50.30
2018-09-06T02:34:30.386Z,50.60
2018-09-06T02:36:58.638Z,51.00
2018-09-06T02:39:27.052Z,50.60
2018-09-06T02:41:55.343Z,50.40
2018-09-06T02:44:23.768Z,50.80
2018-09-06T02:46:52.344Z,51.50
2018-09-06T02:51:28.233Z,50.50
2018-09-06T02:53:56.698Z,50.30
2018-09-06T02:56:24.829Z,51.10
2018-09-06T02:58:53.021Z,51.00
2018-09-06T03:01:21.272Z,51.10
2018-09-06T03:03:49.752Z,51.10
2018-09-06T03:06:18.005Z,50.80
2018-09-06T03:08:46.341Z,50.90
2018-09-06T03:11:16.885Z,50.70
2018-09-06T03:13:45.297Z,50.70
2018-09-06T03:16:13.746Z,50.90
2018-09-06T03:18:42.277Z,50.80
2018-09-06T03:21:10.538Z,50.60
2018-09-06T03:23:38.749Z,50.30
2018-09-06T03:26:12.521Z,50.30
2018-09-06T03:28:40.725Z,50.20
2018-09-06T03:31:08.919Z,50.20
2018-09-06T03:33:37.123Z,50.30
2018-09-06T03:36:06.048Z,50.50
2018-09-06T03:38:34.372Z,50.50
2018-09-06T03:41:02.602Z,50.40
2018-09-06T03:43:30.810Z,50.50
2018-09-06T03:45:59.122Z,49.60
2018-09-06T03:48:27.423Z,49.00
2018-09-06T03:50:55.921Z,48.20
2018-09-06T03:53:24.198Z,48.50
2018-09-06T03:55:52.418Z,49.00
2018-09-06T03:58:20.969Z,49.50
2018-09-06T04:00:49.878Z,49.10
2018-09-06T04:03:18.239Z,49.40
2018-09-06T04:05:46.587Z,49.80
2018-09-06T04:08:14.789Z,49.90
2018-09-06T04:10:43.101Z,50.10
2018-09-06T04:13:11.346Z,50.00
2018-09-06T04:15:39.558Z,49.40
2018-09-06T04:18:07.844Z,49.20
2018-09-06T04:20:36.268Z,49.30
2018-09-06T04:23:04.536Z,49.60
2018-09-06T04:25:32.833Z,49.80
2018-09-06T04:28:01.099Z,50.00
2018-09-06T04:30:29.386Z,49.80
2018-09-06T04:32:57.767Z,50.10
2018-09-06T04:35:26.041Z,49.70
2018-09-06T04:37:54.222Z,50.10
2018-09-06T04:40:22.492Z,49.70
2018-09-06T04:42:50.889Z,49.80
2018-09-06T04:45:19.110Z,50.00
2018-09-06T04:47:47.329Z,50.20
2018-09-06T04:50:15.541Z,49.70
2018-09-06T04:52:43.832Z,49.60
2018-09-06T04:55:12.168Z,49.50
2018-09-06T04:57:40.349Z,49.30
2018-09-06T05:00:08.573Z,49.30
2018-09-06T05:02:36.773Z,49.30
2018-09-06T05:05:06.349Z,49.10
2018-09-06T05:07:34.625Z,49.00
2018-09-06T05:10:02.814Z,48.90
2018-09-06T05:12:30.991Z,49.30
2018-09-06T05:14:59.218Z,49.30
2018-09-06T05:17:27.530Z,49.20
2018-09-06T05:19:55.769Z,48.70
2018-09-06T05:22:23.973Z,47.90
2018-09-06T05:24:52.170Z,47.80
2018-09-06T05:27:20.550Z,47.60
2018-09-06T05:29:48.819Z,47.50
2018-09-06T05:32:17.097Z,47.70
2018-09-06T05:34:45.273Z,47.90
2018-09-06T05:37:13.571Z,48.70
2018-09-06T05:39:41.863Z,48.60
2018-09-06T05:42:10.194Z,48.70
2018-09-06T05:44:38.413Z,48.80
2018-09-06T05:47:07.482Z,48.80
2018-09-06T05:49:35.756Z,49.10
2018-09-06T05:52:04.006Z,49.60
2018-09-06T05:54:32.180Z,49.20
2018-09-06T05:57:00.590Z,49.20
2018-09-06T05:59:28.931Z,49.10
2018-09-06T06:01:57.210Z,49.70
2018-09-06T06:04:25.467Z,49.00
2018-09-06T06:06:53.657Z,49.10
2018-09-06T06:09:21.854Z,49.00
2018-09-06T06:11:50.152Z,48.80
2018-09-06T06:14:18.323Z,48.90
2018-09-06T06:16:46.529Z,49.10
2018-09-06T06:19:14.710Z,49.10
2018-09-06T06:21:43.111Z,49.00
2018-09-06T06:24:12.262Z,48.80
2018-09-06T06:26:40.494Z,49.20
2018-09-06T06:29:09.030Z,49.30
2018-09-06T06:31:37.295Z,49.00
2018-09-06T06:34:05.741Z,48.90
2018-09-06T06:36:33.986Z,48.90
2018-09-06T06:39:02.241Z,48.80
2018-09-06T06:41:30.444Z,49.10
2018-09-06T06:43:59.362Z,49.20
2018-09-06T06:46:27.608Z,49.80
2018-09-06T06:48:55.833Z,49.20
2018-09-06T06:51:24.088Z,49.00
2018-09-06T06:53:52.540Z,48.90
2018-09-06T06:56:21.098Z,48.30
2018-09-06T06:58:49.908Z,47.90
2018-09-06T07:01:18.084Z,47.30
2018-09-06T07:03:46.272Z,46.90
2018-09-06T07:06:14.477Z,46.60
2018-09-06T07:08:42.727Z,46.70
2018-09-06T07:11:10.926Z,47.40
2018-09-06T07:13:39.117Z,46.70
2018-09-06T07:16:07.286Z,46.50
2018-09-06T07:18:35.711Z,46.30
2018-09-06T07:21:03.878Z,45.10
2018-09-06T07:23:32.089Z,43.40
2018-09-06T07:26:00.296Z,43.80
2018-09-06T07:28:29.240Z,42.90
2018-09-06T07:30:57.470Z,42.50
2018-09-06T07:33:25.695Z,42.60
2018-09-06T07:35:53.910Z,42.30
2018-09-06T07:38:22.189Z,42.60
2018-09-06T07:40:50.573Z,42.80
2018-09-06T07:43:18.813Z,43.30
2018-09-06T07:45:47.021Z,42.40
2018-09-06T07:48:15.246Z,41.40
2018-09-06T07:50:43.510Z,40.10
2018-09-06T07:53:11.753Z,38.50
2018-09-06T07:55:39.928Z,35.40
2018-09-06T07:58:08.157Z,33.80
2018-09-06T08:00:40.194Z,31.90
2018-09-06T08:03:08.807Z,30.80
2018-09-06T08:05:37.066Z,29.80
2018-09-06T08:08:05.400Z,28.90
2018-09-06T08:10:33.680Z,28.00
2018-09-06T08:13:01.906Z,27.20
2018-09-06T08:15:30.143Z,26.50
2018-09-06T08:17:58.501Z,26.00
2018-09-06T08:20:26.763Z,25.50
2018-09-06T08:22:54.974Z,25.20
2018-09-06T08:25:23.183Z,25.40
2018-09-06T08:27:51.546Z,24.50
2018-09-06T08:30:19.814Z,24.20
2018-09-06T08:32:48.104Z,23.80
2018-09-06T08:35:16.342Z,23.50
2018-09-06T08:37:44.596Z,22.90
2018-09-06T08:40:12.839Z,22.60
2018-09-06T08:42:41.050Z,22.60
2018-09-06T08:45:09.274Z,22.20
2018-09-06T08:47:37.597Z,21.60
2018-09-06T08:50:05.742Z,20.90
2018-09-06T08:52:34.151Z,20.80
2018-09-06T08:55:02.581Z,20.80
2018-09-06T08:57:30.789Z,20.90
2018-09-06T08:59:59.253Z,21.00
2018-09-06T09:02:27.677Z,21.70
2018-09-06T09:04:55.798Z,21.80
2018-09-06T09:07:24.083Z,21.50
2018-09-06T09:09:52.278Z,21.60
2018-09-06T09:12:20.678Z,22.40
2018-09-06T09:14:48.942Z,23.10
2018-09-06T09:17:17.250Z,23.20
2018-09-06T09:19:46.765Z,22.60
2018-09-06T09:22:15.152Z,22.80
2018-09-06T09:24:43.211Z,22.10
2018-09-06T09:27:11.578Z,22.10
2018-09-06T09:29:39.762Z,21.70
2018-09-06T09:32:08.010Z,20.80
2018-09-06T09:34:36.345Z,20.20
2018-09-06T09:37:04.749Z,19.90
2018-09-06T09:39:33.021Z,19.30
2018-09-06T09:42:01.245Z,19.30
2018-09-06T09:44:29.565Z,19.00
2018-09-06T09:49:25.736Z,18.60
2018-09-06T09:51:53.984Z,18.90
2018-09-06T09:54:22.202Z,18.70
2018-09-06T09:56:50.468Z,18.60
2018-09-06T09:59:18.681Z,18.70
2018-09-06T10:01:52.469Z,18.60
2018-09-06T10:04:26.152Z,18.40
2018-09-06T10:06:59.898Z,18.80
2018-09-06T10:09:28.378Z,18.70
2018-09-06T10:11:56.619Z,20.00
2018-09-06T10:14:24.898Z,20.10
2018-09-06T10:16:53.191Z,19.70
2018-09-06T10:19:21.478Z,19.40
2018-09-06T10:21:49.859Z,19.70
2018-09-06T10:24:18.169Z,19.50
2018-09-06T10:26:46.741Z,19.20
2018-09-06T10:29:15.025Z,19.40
2018-09-06T10:31:43.441Z,19.90
2018-09-06T10:34:11.757Z,19.10
2018-09-06T10:36:40.069Z,19.30
2018-09-06T10:39:10.825Z,19.30
2018-09-06T10:41:39.253Z,19.10
2018-09-06T10:44:07.544Z,19.10
2018-09-06T10:46:35.997Z,19.20
2018-09-06T10:49:04.239Z,19.20
2018-09-06T10:51:32.441Z,19.20
2018-09-06T10:54:00.688Z,18.60
2018-09-06T10:56:29.070Z,17.90
2018-09-06T10:58:57.409Z,17.00
2018-09-06T11:01:25.789Z,17.00
2018-09-06T11:03:55.437Z,16.90
2018-09-06T11:06:23.997Z,16.80
2018-09-06T11:08:53.240Z,16.90
2018-09-06T11:11:21.702Z,16.90
2018-09-06T11:13:50.100Z,16.90
2018-09-06T11:16:18.925Z,16.40
2018-09-06T11:18:47.206Z,16.50
2018-09-06T11:21:15.535Z,16.40
2018-09-06T11:23:43.878Z,16.40
2018-09-06T11:26:12.369Z,15.80
2018-09-06T11:28:40.738Z,15.80
2018-09-06T11:31:08.986Z,15.60
2018-09-06T11:33:37.318Z,15.90
2018-09-06T11:36:05.553Z,15.80
2018-09-06T11:38:33.833Z,15.60
2018-09-06T11:41:02.339Z,15.90
2018-09-06T11:43:30.618Z,16.40
2018-09-06T11:45:58.987Z,16.70
2018-09-06T11:48:27.313Z,17.60
2018-09-06T11:50:55.577Z,17.30
2018-09-06T11:53:23.909Z,17.10
2018-09-06T11:55:52.490Z,17.00
2018-09-06T11:58:20.946Z,16.80
2018-09-06T12:00:49.269Z,17.00
2018-09-06T12:03:17.499Z,17.50
2018-09-06T12:05:45.723Z,16.00
2018-09-06T12:08:14.091Z,15.60
2018-09-06T12:10:42.469Z,15.50
2018-09-06T12:13:10.673Z,15.10
2018-09-06T12:15:38.906Z,14.80
2018-09-06T12:18:07.224Z,14.90
2018-09-06T12:20:35.473Z,14.70
2018-09-06T12:23:04.166Z,14.30
2018-09-06T12:25:32.419Z,14.40
2018-09-06T12:28:00.605Z,14.60
2018-09-06T12:30:28.901Z,14.90
2018-09-06T12:32:57.267Z,15.70
2018-09-06T12:35:25.445Z,14.90
2018-09-06T12:37:53.650Z,14.80
2018-09-06T12:40:21.886Z,14.80
2018-09-06T12:42:50.118Z,14.80
2018-09-06T12:45:18.313Z,15.20
2018-09-06T12:47:46.573Z,15.40
2018-09-06T12:50:14.786Z,15.40
2018-09-06T12:52:43.089Z,15.80
2018-09-06T12:55:11.293Z,15.60
2018-09-06T12:57:39.474Z,15.30
2018-09-06T13:00:07.692Z,15.30
2018-09-06T13:02:36.029Z,15.50
2018-09-06T13:05:04.302Z,16.70
2018-09-06T13:07:32.526Z,17.50
2018-09-06T13:10:00.771Z,18.70
2018-09-06T13:12:29.033Z,19.80
2018-09-06T13:14:57.717Z,20.10
2018-09-06T13:17:25.917Z,21.40
2018-09-06T13:19:54.579Z,21.50
2018-09-06T13:22:22.910Z,22.10
2018-09-06T13:24:51.331Z,23.20
2018-09-06T13:27:19.723Z,23.50
2018-09-06T13:29:47.877Z,23.80
2018-09-06T13:32:16.121Z,24.50
2018-09-06T13:34:44.465Z,24.30
2018-09-06T13:37:12.751Z,24.20
2018-09-06T13:39:41.161Z,24.20
2018-09-06T13:42:09.473Z,24.00
2018-09-06T13:44:37.746Z,23.90
2018-09-06T13:47:06.074Z,24.10
2018-09-06T13:49:34.578Z,23.90
2018-09-06T13:52:02.819Z,23.80
2018-09-06T13:54:31.043Z,23.60
2018-09-06T13:56:59.387Z,23.90
2018-09-06T13:59:27.703Z,24.00
2018-09-06T14:01:55.924Z,23.70
2018-09-06T14:04:24.166Z,23.60
2018-09-06T14:06:52.479Z,23.70
2018-09-06T14:09:20.843Z,24.50
2018-09-06T14:11:49.036Z,24.20
2018-09-06T14:14:17.257Z,25.10
2018-09-06T14:16:45.479Z,24.60
2018-09-06T14:19:13.720Z,24.80
2018-09-06T14:21:43.179Z,24.70
2018-09-06T14:24:11.418Z,25.00
2018-09-06T14:26:39.604Z,24.20
2018-09-06T14:29:07.822Z,25.10
2018-09-06T14:31:36.208Z,24.80
2018-09-06T14:34:04.430Z,24.50
2018-09-06T14:36:32.964Z,25.00
2018-09-06T14:39:01.230Z,24.90
2018-09-06T14:41:29.401Z,25.30
2018-09-06T14:43:57.687Z,24.40
2018-09-06T14:46:25.891Z,24.00
2018-09-06T14:48:54.126Z,24.10
2018-09-06T14:51:22.335Z,24.30
2018-09-06T14:53:50.649Z,24.30
2018-09-06T14:56:18.853Z,24.70
2018-09-06T14:58:47.109Z,24.60
2018-09-06T15:01:15.309Z,24.60
2018-09-06T15:03:43.599Z,24.20
2018-09-06T15:06:11.920Z,24.30
2018-09-06T15:08:40.150Z,24.90
2018-09-06T15:11:08.389Z,25.00
2018-09-06T15:13:37.595Z,24.70
2018-09-06T15:16:05.804Z,25.00
2018-09-06T15:18:34.039Z,25.10
2018-09-06T15:21:02.435Z,25.20
2018-09-06T15:23:30.654Z,25.30
2018-09-06T15:25:58.937Z,25.50
2018-09-06T15:28:27.558Z,25.80
2018-09-06T15:30:55.792Z,25.80
2018-09-06T15:33:24.418Z,25.70
2018-09-06T15:35:52.719Z,25.70
2018-09-06T15:38:21.298Z,25.20
2018-09-06T15:40:49.525Z,25.40
2018-09-06T15:43:17.860Z,26.00
2018-09-06T15:45:46.504Z,25.90
2018-09-06T15:48:14.731Z,25.40
2018-09-06T15:50:43.549Z,25.10
2018-09-06T15:53:11.809Z,24.90
2018-09-06T15:55:40.102Z,24.30
2018-09-06T15:58:08.312Z,24.30
2018-09-06T16:00:36.666Z,23.80
2018-09-06T16:03:04.982Z,24.30
2018-09-06T16:05:33.216Z,23.90
2018-09-06T16:08:01.421Z,23.60
2018-09-06T16:10:29.723Z,23.90
2018-09-06T16:12:57.950Z,24.00
2018-09-06T16:15:26.176Z,24.80
2018-09-06T16:17:54.365Z,25.00
2018-09-06T16:20:22.573Z,25.10
2018-09-06T16:22:50.862Z,25.20
2018-09-06T16:25:19.073Z,25.40
2018-09-06T16:27:47.306Z,25.30
2018-09-06T16:30:15.598Z,25.80
2018-09-06T16:32:43.850Z,25.80
2018-09-06T16:35:12.050Z,26.40
2018-09-06T16:37:40.262Z,27.00
2018-09-06T16:40:08.504Z,26.50
2018-09-06T16:42:37.375Z,26.90
2018-09-06T16:45:05.703Z,27.10
2018-09-06T16:47:33.932Z,27.00
2018-09-06T16:50:02.158Z,27.70
2018-09-06T16:52:30.411Z,28.50
2018-09-06T16:54:58.748Z,28.50
2018-09-06T16:57:27.854Z,29.20
2018-09-06T16:59:56.048Z,29.40
2018-09-06T17:02:24.237Z,28.90
2018-09-06T17:04:52.520Z,29.10
2018-09-06T17:07:20.738Z,29.30
2018-09-06T17:09:48.933Z,29.40
2018-09-06T17:12:17.159Z,29.60
2018-09-06T17:14:45.446Z,29.80
2018-09-06T17:17:14.032Z,30.00
2018-09-06T17:19:42.306Z,30.00
2018-09-06T17:22:10.483Z,30.60
2018-09-06T17:24:38.717Z,30.60
2018-09-06T17:27:06.961Z,30.70
2018-09-06T17:29:35.276Z,31.10
2018-09-06T17:32:03.499Z,31.10
2018-09-06T17:34:31.998Z,31.30
2018-09-06T17:37:00.182Z,31.80
2018-09-06T17:39:28.558Z,32.10
2018-09-06T17:41:56.837Z,32.70
2018-09-06T17:44:25.068Z,32.80
2018-09-06T17:46:53.268Z,32.80
2018-09-06T17:49:23.171Z,32.50
2018-09-06T17:51:51.523Z,32.70
2018-09-06T17:54:19.970Z,33.20
2018-09-06T17:56:48.174Z,33.20
2018-09-06T17:59:16.377Z,33.20
2018-09-06T18:01:44.637Z,33.70
2018-09-06T18:04:13.059Z,34.20
2018-09-06T18:06:41.256Z,34.00
2018-09-06T18:09:10.695Z,33.80
2018-09-06T18:11:39.251Z,34.50
2018-09-06T18:14:07.517Z,34.10
2018-09-06T18:16:35.794Z,35.10
2018-09-06T18:19:04.042Z,34.60
2018-09-06T18:21:32.317Z,34.40
2018-09-06T18:24:00.615Z,34.80
2018-09-06T18:26:28.994Z,34.60
2018-09-06T18:28:57.397Z,34.80
2018-09-06T18:31:25.634Z,34.90
2018-09-06T18:33:53.830Z,34.60
2018-09-06T18:36:22.045Z,34.60
2018-09-06T18:38:50.667Z,34.80
2018-09-06T18:41:19.069Z,34.80
2018-09-06T18:43:47.555Z,34.70
2018-09-06T18:46:15.859Z,34.70
2018-09-06T18:48:44.190Z,34.90
2018-09-06T18:51:12.786Z,35.10
2018-09-06T18:53:41.330Z,34.70
2018-09-06T18:56:09.682Z,34.70
2018-09-06T18:58:37.977Z,35.10
2018-09-06T19:01:06.350Z,34.80
2018-09-06T19:03:34.655Z,34.80
2018-09-06T19:06:03.337Z,35.30
2018-09-06T19:08:31.622Z,35.30
2018-09-06T19:11:00.080Z,35.20
2018-09-06T19:13:29.289Z,35.30
2018-09-06T19:15:57.596Z,36.00
2018-09-06T19:18:25.793Z,35.10
2018-09-06T19:20:54.221Z,35.20
2018-09-06T19:23:22.424Z,35.30
2018-09-06T19:25:50.774Z,35.10
2018-09-06T19:28:18.978Z,34.90
2018-09-06T19:30:47.226Z,35.40
2018-09-06T19:33:15.793Z,35.70
2018-09-06T19:35:44.837Z,35.90
2018-09-06T19:38:13.114Z,36.10
2018-09-06T19:40:41.321Z,36.10
2018-09-06T19:43:09.613Z,35.60
2018-09-06T19:45:37.838Z,35.60
2018-09-06T19:48:06.881Z,35.80
2018-09-06T19:50:35.729Z,35.80
2018-09-06T19:53:03.990Z,36.00
2018-09-06T19:55:32.154Z,36.90
2018-09-06T19:58:00.367Z,36.50
2018-09-06T20:00:28.829Z,37.00
2018-09-06T20:02:57.080Z,38.60
2018-09-06T20:05:25.582Z,39.10
2018-09-06T20:07:53.815Z,39.50
2018-09-06T20:10:22.180Z,40.20
2018-09-06T20:12:51.345Z,40.90
2018-09-06T20:15:19.678Z,40.70
2018-09-06T20:17:48.079Z,40.80
2018-09-06T20:20:16.282Z,41.10
2018-09-06T20:22:44.589Z,42.10
2018-09-06T20:25:12.841Z,43.40
2018-09-06T20:27:41.120Z,45.50
2018-09-06T20:30:09.314Z,47.70
2018-09-06T20:32:37.986Z,48.90
2018-09-06T20:35:06.378Z,50.10
2018-09-06T20:37:34.556Z,51.70
2018-09-06T20:40:02.907Z,52.50
2018-09-06T20:42:31.138Z,53.00
2018-09-06T20:44:59.547Z,53.30
2018-09-06T20:47:27.761Z,54.80
2018-09-06T20:49:56.341Z,55.20
2018-09-06T20:52:24.638Z,55.10
2018-09-06T20:54:52.934Z,55.60
2018-09-06T20:57:22.018Z,55.20
2018-09-06T20:59:50.342Z,55.10
2018-09-06T21:02:21.539Z,55.80
2018-09-06T21:04:50.470Z,56.20
2018-09-06T21:07:18.841Z,56.40
2018-09-06T21:09:47.071Z,56.10
2018-09-06T21:12:15.385Z,56.00
2018-09-06T21:14:43.726Z,55.40
2018-09-06T21:17:12.745Z,56.00
2018-09-06T21:19:40.954Z,56.10
2018-09-06T21:22:09.164Z,55.40
2018-09-06T21:24:37.415Z,54.60
2018-09-06T21:27:07.169Z,55.20
2018-09-06T21:29:35.709Z,54.80
2018-09-06T21:32:04.244Z,54.60
2018-09-06T21:34:32.532Z,56.50
2018-09-06T21:37:00.726Z,55.40
2018-09-06T21:39:29.021Z,53.90
2018-09-06T21:41:57.288Z,53.60
2018-09-06T21:44:25.473Z,53.50
2018-09-06T21:46:53.729Z,53.00
2018-09-06T21:49:22.087Z,52.50
2018-09-06T21:51:50.933Z,54.10
2018-09-06T21:54:19.233Z,53.70
2018-09-06T21:56:47.419Z,52.90
2018-09-06T21:59:15.741Z,52.90
2018-09-06T22:01:44.117Z,53.30
2018-09-06T22:04:12.352Z,54.40
2018-09-06T22:06:40.779Z,53.50
2018-09-06T22:09:11.272Z,53.20
2018-09-06T22:11:39.549Z,54.10
2018-09-06T22:14:08.021Z,53.90
2018-09-06T22:16:36.509Z,54.20
2018-09-06T22:19:04.740Z,54.70
2018-09-06T22:21:33.062Z,54.60
2018-09-06T22:24:01.412Z,54.50
2018-09-06T22:26:30.618Z,54.40
2018-09-06T22:28:58.973Z,54.80
2018-09-06T22:31:27.201Z,54.20
2018-09-06T22:33:55.425Z,53.80
2018-09-06T22:36:27.533Z,54.10
2018-09-06T22:38:55.726Z,54.60
2018-09-06T22:41:23.939Z,53.70
2018-09-06T22:43:52.394Z,53.40
2018-09-06T22:46:21.087Z,53.50
2018-09-06T22:48:49.371Z,54.70
2018-09-06T22:51:17.710Z,53.70
2018-09-06T22:53:45.986Z,53.00
2018-09-06T22:56:15.313Z,52.80
2018-09-06T22:58:43.783Z,52.30
2018-09-06T23:01:13.347Z,52.30
2018-09-06T23:03:43.522Z,53.00
2018-09-06T23:06:11.744Z,52.50
2018-09-06T23:08:39.995Z,51.90
2018-09-06T23:11:08.249Z,53.00
2018-09-06T23:13:36.698Z,52.70
2018-09-06T23:16:04.931Z,52.30
2018-09-06T23:18:33.237Z,52.30
2018-09-06T23:21:01.425Z,53.00
2018-09-06T23:23:30.338Z,52.40
2018-09-06T23:25:58.841Z,52.30
2018-09-06T23:28:27.062Z,52.10
2018-09-06T23:30:55.311Z,52.20
2018-09-06T23:33:23.771Z,52.10
2018-09-06T23:35:52.618Z,51.70
2018-09-06T23:38:21.166Z,53.40
2018-09-06T23:40:55.453Z,53.70
2018-09-06T23:43:24.755Z,53.70
2018-09-06T23:45:57.329Z,52.90
2018-09-06T23:48:26.742Z,53.40
2018-09-06T23:50:55.764Z,52.70
2018-09-06T23:53:24.627Z,52.50
2018-09-06T23:55:52.981Z,52.20
2018-09-06T23:58:21.749Z,53.00
